Observations for BOURNEMOUTH AIRPORT, United Kingdom (EGHH)

EGHH 242320Z 36001KT 9000 NSC M02/M02 Q1013 
EGHH 242250Z 36004KT 9000 NSC M02/M03 Q1013 
EGHH 242220Z 36004KT CAVOK M02/M03 Q1013
EGHH 242150Z 35002KT CAVOK M02/M02 Q1013
EGHH 242120Z 36001KT CAVOK M01/M02 Q1013
EGHH 242050Z 02001KT CAVOK M01/M01 Q1013
EGHH 242020Z 36001KT CAVOK 01/M00 Q1013 
EGHH 241950Z 32001KT CAVOK 01/M00 Q1013 
EGHH 241920Z 32004KT CAVOK M00/M01 Q1013
EGHH 241850Z 34003KT CAVOK 01/00 Q1013  
EGHH 241820Z 00000KT CAVOK 02/01 Q1013  
EGHH 241750Z 35004KT CAVOK 02/01 Q1013  
EGHH 241720Z 36003KT CAVOK 03/01 Q1012  
EGHH 241650Z 05001KT CAVOK 05/02 Q1012  
EGHH 241620Z 02004KT 9999 FEW045 05/02 Q1012
EGHH 241550Z 02003KT 9999 FEW045 07/03 Q1012
EGHH 241520Z 01004KT 9999 FEW045 07/03 Q1012
EGHH 241450Z VRB03KT 9999 FEW045 08/04 Q1011
EGHH 241420Z 04003KT CAVOK 08/04 Q1011  
EGHH 241350Z 06002KT CAVOK 08/04 Q1011  
EGHH 241320Z 02004KT CAVOK 08/05 Q1011  
EGHH 241250Z 04004KT CAVOK 08/05 Q1011  
EGHH 241220Z 04004KT 350V060 CAVOK 08/05 Q1011  
EGHH 241150Z 02004KT 340V060 CAVOK 08/05 Q1012  
EGHH 241120Z 36003KT 9999 FEW049 07/06 Q1012
EGHH 241050Z VRB02KT 9999 FEW049 07/06 Q1011
EGHH 241020Z VRB02KT 9999 FEW048 06/06 Q1011
EGHH 240950Z 08001KT 9999 FEW048 06/05 Q1011
EGHH 240920Z VRB01KT 9999 FEW048 05/05 Q1010
EGHH 240850Z 01003KT 9999 FEW048 05/05 Q1010
EGHH 240820Z 03004KT 9999 FEW045 04/04 Q1010
EGHH 240750Z 27006KT 9999 FEW035 04/04 Q1009
EGHH 240720Z 32004KT 270V350 9999 FEW035 05/04 Q1009
EGHH 240650Z VRB02KT 9999 SCT034 05/04 Q1009
EGHH 240620Z 32003KT CAVOK 05/04 Q1009  
EGHH 240550Z 32002KT CAVOK 05/04 Q1008